Time;durP1;ratioP1;P1;durP2;ratioP2;P2;SDS_P1;SDS_P2;PMS_P1;PMS_P2;Temp;Humidity;BMP_temperature;BMP_pressure;BME280_temperature;BME280_humidity;BME280_pressure;Samples;Min_cycle;Max_cycle;Signal;HPM_P1;HPM_P2
2021/09/17 00:00:43;;;;;;;20.05;3.28;;;;;;;;;;4955042;28;20154;-81
2021/09/17 00:03:09;;;;;;;20.50;4.32;;;;;;;;;;4969979;28;20136;-81
2021/09/17 00:05:35;;;;;;;21.63;3.33;;;;;;;;;;4973870;28;20039;-79
2021/09/17 00:08:02;;;;;;;16.45;3.25;;;;;;;;;;4950268;28;20035;-79
2021/09/17 00:10:29;;;;;;;16.75;3.25;;;;;;;;;;4960875;28;20046;-79
2021/09/17 00:12:55;;;;;;;18.40;3.65;;;;;;;;;;4961964;28;20066;-78
2021/09/17 00:15:21;;;;;;;15.32;3.28;;;;;;;;;;4967904;28;20046;-80
2021/09/17 00:17:48;;;;;;;22.88;3.70;;;;;;;;;;4962727;28;20101;-81
2021/09/17 00:20:15;;;;;;;18.83;3.63;;;;;;;;;;4956026;28;20034;-79
2021/09/17 00:22:41;;;;;;;17.40;3.20;;;;;;;;;;4957270;28;21160;-81
2021/09/17 00:25:08;;;;;;;15.43;3.40;;;;;;;;;;4959912;28;20065;-79
2021/09/17 00:27:34;;;;;;;15.68;3.40;;;;;;;;;;4965605;28;20564;-80
2021/09/17 00:30:01;;;;;;;14.57;3.25;;;;;;;;;;4975225;28;20611;-79
2021/09/17 00:32:28;;;;;;;20.33;3.38;;;;;;;;;;4945257;28;20442;-78
2021/09/17 00:34:55;;;;;;;17.48;3.08;;;;;;;;;;4960995;28;20122;-81
2021/09/17 00:37:21;;;;;;;16.25;2.90;;;;;;;;;;4955432;28;20050;-78
2021/09/17 00:39:48;;;;;;;15.32;3.33;;;;;;;;;;4966270;28;20055;-78
2021/09/17 00:42:14;;;;;;;22.70;3.00;;;;;;;;;;4962620;28;20092;-80
2021/09/17 00:44:40;;;;;;;16.70;2.90;;;;;;;;;;4968760;28;20804;-81
2021/09/17 00:47:06;;;;;;;16.25;2.97;;;;;;;;;;4956678;28;20135;-79
2021/09/17 00:49:33;;;;;;;16.58;3.00;;;;;;;;;;4970456;28;20050;-79
2021/09/17 00:51:59;;;;;;;14.25;2.90;;;;;;;;;;4966749;28;20112;-79
2021/09/17 00:54:28;;;;;;;15.38;2.92;;;;;;;;;;4953987;28;20050;-80
2021/09/17 00:56:58;;;;;;;19.98;2.92;;;;;;;;;;4959682;28;20050;-79
2021/09/17 00:59:25;;;;;;;15.43;2.83;;;;;;;;;;4953727;28;20519;-78
2021/09/17 01:01:52;;;;;;;15.25;3.20;;;;;;;;;;4980129;28;20078;-79
2021/09/17 01:04:20;;;;;;;13.63;3.00;;;;;;;;;;4956452;28;20037;-79
2021/09/17 01:06:47;;;;;;;19.55;3.17;;;;;;;;;;4979053;28;20058;-79
2021/09/17 01:09:14;;;;;;;15.40;3.08;;;;;;;;;;4961471;28;20396;-79
2021/09/17 01:11:40;;;;;;;15.73;2.90;;;;;;;;;;4957034;28;20042;-78
2021/09/17 01:14:09;;;;;;;17.15;3.55;;;;;;;;;;4963512;28;20038;-79
2021/09/17 01:16:37;;;;;;;17.98;2.92;;;;;;;;;;4954755;28;20367;-78
2021/09/17 01:19:03;;;;;;;13.20;3.08;;;;;;;;;;4981264;28;20041;-79
2021/09/17 01:21:29;;;;;;;16.83;2.72;;;;;;;;;;4954501;28;20109;-79
2021/09/17 01:23:56;;;;;;;12.63;2.50;;;;;;;;;;4975870;28;20490;-79
2021/09/17 01:26:22;;;;;;;17.00;3.40;;;;;;;;;;4975840;28;20038;-80
2021/09/17 01:28:48;;;;;;;20.95;3.60;;;;;;;;;;4963033;28;20089;-80
2021/09/17 01:31:14;;;;;;;17.20;3.05;;;;;;;;;;4976181;28;20042;-79
2021/09/17 01:33:41;;;;;;;16.23;3.25;;;;;;;;;;4954325;28;20774;-79
2021/09/17 01:36:09;;;;;;;15.82;3.92;;;;;;;;;;4977362;28;20034;-80
2021/09/17 01:38:36;;;;;;;14.00;3.05;;;;;;;;;;4959234;28;20050;-80
2021/09/17 01:41:02;;;;;;;12.80;3.13;;;;;;;;;;4962889;28;20125;-79
2021/09/17 01:43:29;;;;;;;17.08;3.00;;;;;;;;;;4963127;28;20034;-79
2021/09/17 01:45:55;;;;;;;14.90;2.53;;;;;;;;;;4972807;28;20062;-81
2021/09/17 01:48:25;;;;;;;14.73;3.03;;;;;;;;;;4951514;28;20118;-78
2021/09/17 01:50:51;;;;;;;14.02;2.80;;;;;;;;;;4959621;28;20050;-79
2021/09/17 01:53:18;;;;;;;15.20;2.80;;;;;;;;;;4957825;28;20062;-79
2021/09/17 01:55:44;;;;;;;13.38;2.38;;;;;;;;;;4961824;28;20128;-79
2021/09/17 01:58:10;;;;;;;15.35;2.92;;;;;;;;;;4971236;28;20042;-80
2021/09/17 02:00:36;;;;;;;13.52;2.80;;;;;;;;;;4976692;28;20796;-79
2021/09/17 02:03:03;;;;;;;14.38;2.90;;;;;;;;;;4957633;28;20408;-79
2021/09/17 02:05:30;;;;;;;19.77;3.05;;;;;;;;;;4950515;28;20031;-79
2021/09/17 02:07:59;;;;;;;13.23;2.28;;;;;;;;;;4958311;28;20053;-79
2021/09/17 02:10:26;;;;;;;19.33;2.50;;;;;;;;;;4951287;28;20034;-79
2021/09/17 02:12:52;;;;;;;17.70;2.90;;;;;;;;;;4960660;28;20350;-79
2021/09/17 02:15:19;;;;;;;16.90;3.10;;;;;;;;;;4958474;28;20041;-79
2021/09/17 02:17:46;;;;;;;15.15;2.80;;;;;;;;;;4957911;28;20042;-79
2021/09/17 02:20:13;;;;;;;15.15;3.10;;;;;;;;;;4973531;28;20030;-79
2021/09/17 02:22:39;;;;;;;17.05;2.53;;;;;;;;;;4970787;28;20042;-79
2021/09/17 02:25:06;;;;;;;20.27;3.88;;;;;;;;;;4976758;28;20574;-79
2021/09/17 02:27:32;;;;;;;17.27;3.05;;;;;;;;;;4971831;28;20708;-79
2021/09/17 02:29:58;;;;;;;15.68;2.55;;;;;;;;;;4959823;28;20026;-79
2021/09/17 02:32:24;;;;;;;13.73;2.25;;;;;;;;;;4953474;28;20116;-79
2021/09/17 02:34:51;;;;;;;16.88;3.08;;;;;;;;;;4959272;28;20131;-79
2021/09/17 02:37:17;;;;;;;14.10;2.92;;;;;;;;;;4958976;28;20046;-78
2021/09/17 02:39:44;;;;;;;14.30;2.58;;;;;;;;;;4953887;28;20121;-78
2021/09/17 02:42:10;;;;;;;13.25;2.22;;;;;;;;;;4958714;28;20019;-78
2021/09/17 02:44:37;;;;;;;13.50;2.33;;;;;;;;;;4950057;28;20041;-80
2021/09/17 02:47:03;;;;;;;16.33;2.60;;;;;;;;;;4960216;28;20801;-77
2021/09/17 02:49:33;;;;;;;14.15;2.60;;;;;;;;;;4955003;28;20041;-79
2021/09/17 02:52:03;;;;;;;12.80;2.50;;;;;;;;;;4958322;28;20034;-79
2021/09/17 02:54:29;;;;;;;14.68;2.45;;;;;;;;;;4956711;28;20022;-80
2021/09/17 02:56:55;;;;;;;11.82;2.25;;;;;;;;;;4976270;28;20468;-80
2021/09/17 02:59:21;;;;;;;15.80;2.70;;;;;;;;;;4966519;28;20549;-78
2021/09/17 03:01:48;;;;;;;14.75;2.90;;;;;;;;;;4972159;28;20035;-79
2021/09/17 03:04:14;;;;;;;14.00;2.45;;;;;;;;;;4956995;28;20117;-78
2021/09/17 03:06:40;;;;;;;10.85;1.95;;;;;;;;;;4956756;28;22980;-79
2021/09/17 03:09:06;;;;;;;11.18;2.40;;;;;;;;;;4969768;28;20102;-78
2021/09/17 03:11:33;;;;;;;14.68;2.50;;;;;;;;;;4969078;28;20129;-78
2021/09/17 03:14:00;;;;;;;13.25;2.60;;;;;;;;;;4959569;28;20134;-78
2021/09/17 03:16:26;;;;;;;16.70;2.70;;;;;;;;;;4954154;28;20038;-78
2021/09/17 03:18:53;;;;;;;13.63;2.58;;;;;;;;;;4956855;28;20057;-78
2021/09/17 03:21:19;;;;;;;15.32;3.70;;;;;;;;;;4953972;28;20629;-78
2021/09/17 03:23:46;;;;;;;18.92;3.40;;;;;;;;;;4959619;28;20491;-78
2021/09/17 03:26:12;;;;;;;16.45;2.95;;;;;;;;;;4965636;28;20042;-78
2021/09/17 03:28:39;;;;;;;15.43;3.13;;;;;;;;;;4985265;28;20039;-78
2021/09/17 03:31:05;;;;;;;15.02;3.25;;;;;;;;;;4961704;28;20735;-78
2021/09/17 03:33:31;;;;;;;15.40;2.47;;;;;;;;;;4956871;28;20023;-78
2021/09/17 03:35:57;;;;;;;16.00;2.40;;;;;;;;;;4980276;28;20022;-78
2021/09/17 03:38:23;;;;;;;15.23;2.53;;;;;;;;;;4954289;28;20054;-78
2021/09/17 03:40:50;;;;;;;15.50;2.70;;;;;;;;;;4977304;28;20031;-78
2021/09/17 03:43:17;;;;;;;15.43;2.80;;;;;;;;;;4956781;28;20181;-79
2021/09/17 03:45:43;;;;;;;16.33;3.03;;;;;;;;;;4958699;28;23415;-78
2021/09/17 03:48:11;;;;;;;18.30;2.70;;;;;;;;;;4961111;28;20026;-78
2021/09/17 03:50:38;;;;;;;14.10;2.50;;;;;;;;;;4953928;28;20129;-78
2021/09/17 03:53:04;;;;;;;15.00;2.40;;;;;;;;;;4960612;28;20522;-78
2021/09/17 03:55:33;;;;;;;12.30;2.30;;;;;;;;;;4955065;28;20030;-78
2021/09/17 03:58:00;;;;;;;11.15;2.33;;;;;;;;;;4960454;28;20046;-78
2021/09/17 04:00:27;;;;;;;15.15;2.42;;;;;;;;;;4957021;28;20500;-78
2021/09/17 04:02:53;;;;;;;14.05;3.10;;;;;;;;;;4955109;28;20084;-79
2021/09/17 04:05:20;;;;;;;14.20;2.33;;;;;;;;;;4964159;28;20043;-79
2021/09/17 04:07:46;;;;;;;15.35;2.67;;;;;;;;;;4971747;28;20133;-78
2021/09/17 04:10:17;;;;;;;20.33;3.10;;;;;;;;;;4972599;28;20488;-78
2021/09/17 04:12:43;;;;;;;14.70;2.53;;;;;;;;;;4956155;28;20034;-78
2021/09/17 04:15:10;;;;;;;14.30;2.55;;;;;;;;;;4971431;28;20042;-78
2021/09/17 04:17:36;;;;;;;14.77;2.38;;;;;;;;;;4970765;28;20042;-78
2021/09/17 04:20:03;;;;;;;11.23;2.47;;;;;;;;;;4955693;28;20654;-78
2021/09/17 04:22:29;;;;;;;10.70;2.30;;;;;;;;;;4973749;28;20045;-78
2021/09/17 04:24:56;;;;;;;11.88;2.40;;;;;;;;;;4957388;28;20045;-77
2021/09/17 04:27:22;;;;;;;16.13;2.80;;;;;;;;;;4965509;28;20039;-77
2021/09/17 04:29:49;;;;;;;19.90;2.70;;;;;;;;;;4960915;28;20122;-78
2021/09/17 04:32:15;;;;;;;13.77;2.53;;;;;;;;;;4965949;28;20045;-78
2021/09/17 04:34:41;;;;;;;19.67;2.63;;;;;;;;;;4961801;28;20632;-77
2021/09/17 04:37:07;;;;;;;17.08;3.08;;;;;;;;;;4976324;28;20430;-78
2021/09/17 04:39:34;;;;;;;16.58;3.17;;;;;;;;;;4954708;28;20038;-77
2021/09/17 04:42:00;;;;;;;17.60;2.85;;;;;;;;;;4978970;28;20058;-77
2021/09/17 04:44:26;;;;;;;16.20;2.80;;;;;;;;;;4969463;28;20519;-78
2021/09/17 04:46:52;;;;;;;15.13;3.28;;;;;;;;;;4983181;28;20125;-78
2021/09/17 04:49:20;;;;;;;14.68;2.63;;;;;;;;;;4957048;28;20104;-78
2021/09/17 04:51:47;;;;;;;14.68;2.85;;;;;;;;;;4975444;28;20117;-78
2021/09/17 04:54:13;;;;;;;13.52;2.72;;;;;;;;;;4963095;28;20030;-78
2021/09/17 04:56:41;;;;;;;14.50;2.83;;;;;;;;;;4972881;28;20165;-78
2021/09/17 04:59:07;;;;;;;19.42;2.83;;;;;;;;;;4963779;28;20038;-78
2021/09/17 05:02:27;;;;;;;17.98;2.80;;;;;;;;;;4967890;28;20114;-78
2021/09/17 05:05:08;;;;;;;10.18;2.35;;;;;;;;;;4862376;29;20620;-80
2021/09/17 05:07:34;;;;;;;12.00;2.30;;;;;;;;;;4875643;29;20497;-78
2021/09/17 05:10:00;;;;;;;15.18;2.40;;;;;;;;;;4870749;29;20103;-79
2021/09/17 05:12:27;;;;;;;16.70;2.65;;;;;;;;;;4870700;29;20043;-79
2021/09/17 05:14:53;;;;;;;17.27;3.20;;;;;;;;;;4885149;29;20556;-78
2021/09/17 05:17:20;;;;;;;15.68;2.95;;;;;;;;;;4869723;29;21084;-79
2021/09/17 05:19:47;;;;;;;20.73;3.05;;;;;;;;;;4874220;29;20095;-79
2021/09/17 05:22:13;;;;;;;18.08;2.88;;;;;;;;;;4867784;29;20136;-78
2021/09/17 05:24:39;;;;;;;21.55;4.05;;;;;;;;;;4868149;29;22476;-78
2021/09/17 05:27:12;;;;;;;15.18;3.60;;;;;;;;;;4867012;29;20032;-79
2021/09/17 05:29:39;;;;;;;14.30;2.95;;;;;;;;;;4882059;29;20674;-78
2021/09/17 05:32:05;;;;;;;17.33;3.20;;;;;;;;;;4885765;29;20047;-78
2021/09/17 05:34:32;;;;;;;20.92;3.33;;;;;;;;;;4863913;29;20891;-78
2021/09/17 05:36:58;;;;;;;15.73;3.25;;;;;;;;;;4889483;29;20131;-79
2021/09/17 05:39:24;;;;;;;13.93;3.20;;;;;;;;;;4939243;28;20046;-80
2021/09/17 05:41:50;;;;;;;20.67;3.42;;;;;;;;;;4980928;28;20622;-77
2021/09/17 05:44:17;;;;;;;16.75;3.03;;;;;;;;;;4981238;28;20030;-77
2021/09/17 05:46:43;;;;;;;15.80;3.10;;;;;;;;;;4959923;28;20130;-77
2021/09/17 05:49:09;;;;;;;14.45;3.00;;;;;;;;;;4967068;28;20065;-77
2021/09/17 05:51:36;;;;;;;16.52;3.58;;;;;;;;;;4955010;28;20042;-78
2021/09/17 05:54:02;;;;;;;17.15;3.20;;;;;;;;;;4965454;28;20077;-80
2021/09/17 05:56:28;;;;;;;11.07;2.70;;;;;;;;;;4959659;28;20038;-80
2021/09/17 05:58:55;;;;;;;18.05;3.50;;;;;;;;;;4960034;28;20042;-81
2021/09/17 06:01:22;;;;;;;18.15;3.67;;;;;;;;;;4960862;28;20447;-77
2021/09/17 06:03:48;;;;;;;16.65;3.60;;;;;;;;;;4952638;28;20134;-80
2021/09/17 06:06:17;;;;;;;17.40;3.33;;;;;;;;;;4977208;28;20057;-77
2021/09/17 06:08:43;;;;;;;16.25;3.75;;;;;;;;;;4961002;28;20049;-78
2021/09/17 06:11:10;;;;;;;16.50;3.72;;;;;;;;;;4954666;28;20061;-78
2021/09/17 06:13:37;;;;;;;16.55;3.08;;;;;;;;;;4956398;28;20058;-78
2021/09/17 06:16:03;;;;;;;17.63;3.20;;;;;;;;;;4976749;28;20488;-78
2021/09/17 06:18:30;;;;;;;11.80;2.95;;;;;;;;;;4976457;28;20038;-78
2021/09/17 06:20:58;;;;;;;12.93;2.70;;;;;;;;;;4973624;28;20027;-81
2021/09/17 06:23:24;;;;;;;16.67;2.90;;;;;;;;;;4959980;28;20041;-77
2021/09/17 06:25:50;;;;;;;17.30;3.10;;;;;;;;;;4964363;28;20038;-78
2021/09/17 06:28:16;;;;;;;15.05;3.15;;;;;;;;;;4955874;28;20090;-78
2021/09/17 06:30:43;;;;;;;21.63;3.08;;;;;;;;;;4956493;28;20039;-78
2021/09/17 06:33:09;;;;;;;16.60;3.10;;;;;;;;;;4972831;28;20034;-77
2021/09/17 06:35:35;;;;;;;14.45;3.03;;;;;;;;;;4959362;28;20050;-78
2021/09/17 06:38:02;;;;;;;12.55;2.83;;;;;;;;;;4959470;28;20783;-78
2021/09/17 06:40:28;;;;;;;14.82;2.90;;;;;;;;;;4956968;28;20031;-77
2021/09/17 06:42:55;;;;;;;16.25;2.78;;;;;;;;;;4963558;28;20054;-80
2021/09/17 06:45:22;;;;;;;16.17;2.55;;;;;;;;;;4968591;28;20037;-77
2021/09/17 06:47:50;;;;;;;13.05;2.40;;;;;;;;;;4978175;28;20900;-78
2021/09/17 06:50:17;;;;;;;14.18;2.20;;;;;;;;;;4959021;28;20096;-78
2021/09/17 06:52:47;;;;;;;19.08;2.85;;;;;;;;;;4955167;28;20039;-78
2021/09/17 06:55:23;;;;;;;17.00;3.22;;;;;;;;;;4960165;28;20129;-78
2021/09/17 06:57:51;;;;;;;13.90;2.50;;;;;;;;;;4972341;28;20058;-78
2021/09/17 07:00:20;;;;;;;9.95;2.42;;;;;;;;;;4961650;28;20487;-78
2021/09/17 07:02:47;;;;;;;14.98;3.22;;;;;;;;;;4961539;28;20037;-78
2021/09/17 07:05:13;;;;;;;15.63;3.20;;;;;;;;;;4970936;28;20507;-77
2021/09/17 07:07:40;;;;;;;14.55;3.33;;;;;;;;;;4970815;28;20668;-78
2021/09/17 07:10:07;;;;;;;18.55;3.42;;;;;;;;;;4956827;28;20038;-78
2021/09/17 07:12:34;;;;;;;13.50;2.50;;;;;;;;;;4957643;28;20121;-78
2021/09/17 07:15:00;;;;;;;18.08;3.10;;;;;;;;;;4974653;28;20030;-78
2021/09/17 07:17:27;;;;;;;16.88;3.78;;;;;;;;;;4954015;28;20846;-78
2021/09/17 07:19:53;;;;;;;16.15;3.58;;;;;;;;;;4961362;28;20047;-80
2021/09/17 07:22:20;;;;;;;19.58;4.45;;;;;;;;;;4960859;28;20034;-78
2021/09/17 07:24:47;;;;;;;14.60;3.67;;;;;;;;;;4959273;28;20043;-78
2021/09/17 07:27:13;;;;;;;16.27;3.15;;;;;;;;;;4957164;28;20488;-80
2021/09/17 07:29:40;;;;;;;16.80;2.88;;;;;;;;;;4949862;28;21371;-77
2021/09/17 07:32:07;;;;;;;17.02;3.70;;;;;;;;;;4972344;28;20073;-78
2021/09/17 07:34:34;;;;;;;9.38;2.10;;;;;;;;;;4953340;28;20053;-78
2021/09/17 07:37:00;;;;;;;14.40;2.85;;;;;;;;;;4960653;28;20050;-78
2021/09/17 07:39:26;;;;;;;13.68;2.75;;;;;;;;;;4957697;28;20403;-78
2021/09/17 07:41:52;;;;;;;13.38;2.75;;;;;;;;;;4959246;28;20114;-80
2021/09/17 07:44:19;;;;;;;15.27;2.72;;;;;;;;;;4960396;28;20045;-78
2021/09/17 07:46:46;;;;;;;14.35;2.25;;;;;;;;;;4970519;28;20496;-80
2021/09/17 07:49:12;;;;;;;12.77;2.55;;;;;;;;;;4974527;28;20045;-78
2021/09/17 07:51:38;;;;;;;11.90;2.40;;;;;;;;;;4955976;28;20022;-78
2021/09/17 07:54:04;;;;;;;9.85;2.33;;;;;;;;;;4976650;28;20026;-78
2021/09/17 07:56:31;;;;;;;10.32;1.60;;;;;;;;;;4954718;28;20035;-80
2021/09/17 07:58:57;;;;;;;8.95;1.38;;;;;;;;;;4972669;28;20102;-79
2021/09/17 08:01:23;;;;;;;10.85;2.00;;;;;;;;;;4956104;28;20039;-78
2021/09/17 08:03:49;;;;;;;9.82;1.95;;;;;;;;;;4959173;28;20114;-78
2021/09/17 08:06:16;;;;;;;8.75;1.80;;;;;;;;;;4962936;28;20492;-80
2021/09/17 08:08:42;;;;;;;9.27;1.40;;;;;;;;;;4972080;28;20085;-80
2021/09/17 08:11:08;;;;;;;9.60;1.70;;;;;;;;;;4959783;28;20065;-79
2021/09/17 08:13:35;;;;;;;8.40;1.83;;;;;;;;;;4964700;28;20035;-79
2021/09/17 08:16:01;;;;;;;10.48;1.88;;;;;;;;;;4963205;28;20065;-78
2021/09/17 08:18:28;;;;;;;8.10;1.60;;;;;;;;;;4962233;28;21151;-79
2021/09/17 08:20:58;;;;;;;7.97;1.60;;;;;;;;;;4959603;28;20097;-77
2021/09/17 08:23:24;;;;;;;10.13;1.67;;;;;;;;;;4961531;28;20053;-77
2021/09/17 08:25:51;;;;;;;6.63;1.33;;;;;;;;;;4954746;28;20042;-78
2021/09/17 08:28:19;;;;;;;6.05;1.33;;;;;;;;;;4946129;28;20031;-78
2021/09/17 08:30:45;;;;;;;7.05;1.52;;;;;;;;;;4950775;28;20034;-78
2021/09/17 08:33:12;;;;;;;8.43;1.33;;;;;;;;;;4979012;28;20033;-78
2021/09/17 08:35:38;;;;;;;9.35;1.83;;;;;;;;;;4973589;28;20043;-78
2021/09/17 08:38:04;;;;;;;7.35;1.90;;;;;;;;;;4979533;28;20042;-78
2021/09/17 08:40:31;;;;;;;10.23;2.28;;;;;;;;;;4973554;28;20054;-77
2021/09/17 08:42:59;;;;;;;13.00;4.38;;;;;;;;;;4964032;28;20045;-78
2021/09/17 08:45:26;;;;;;;14.57;4.05;;;;;;;;;;4972736;28;20030;-78
2021/09/17 08:47:54;;;;;;;15.63;4.13;;;;;;;;;;4979300;28;20104;-78
2021/09/17 08:50:22;;;;;;;10.38;3.30;;;;;;;;;;4978507;28;20042;-77
2021/09/17 08:52:50;;;;;;;10.20;2.55;;;;;;;;;;4976580;28;20085;-78
2021/09/17 08:55:16;;;;;;;10.05;2.47;;;;;;;;;;4968069;28;20050;-78
2021/09/17 08:57:43;;;;;;;12.05;2.45;;;;;;;;;;4948464;28;20081;-78
2021/09/17 09:00:30;;;;;;;11.75;2.50;;;;;;;;;;4975854;28;20603;-78
2021/09/17 09:02:57;;;;;;;11.02;1.85;;;;;;;;;;4943274;28;20043;-78
2021/09/17 09:05:30;;;;;;;10.95;1.77;;;;;;;;;;4966472;28;20670;-78
2021/09/17 09:07:57;;;;;;;10.48;2.22;;;;;;;;;;4951877;28;20031;-78
2021/09/17 09:10:24;;;;;;;7.85;1.65;;;;;;;;;;4951997;28;20043;-78
2021/09/17 09:12:55;;;;;;;9.18;1.58;;;;;;;;;;4955846;28;20045;-77
2021/09/17 09:15:30;;;;;;;10.82;1.80;;;;;;;;;;4942601;28;20039;-78
2021/09/17 09:17:58;;;;;;;7.43;1.50;;;;;;;;;;4958202;28;20039;-78
2021/09/17 09:20:30;;;;;;;8.35;1.52;;;;;;;;;;4938358;28;20043;-78
2021/09/17 09:23:04;;;;;;;9.18;1.60;;;;;;;;;;4954929;28;20038;-78
2021/09/17 09:25:30;;;;;;;9.43;1.60;;;;;;;;;;4959232;28;20043;-79
2021/09/17 09:28:13;;;;;;;8.65;1.52;;;;;;;;;;4956504;28;20105;-79
2021/09/17 09:30:40;;;;;;;9.00;1.42;;;;;;;;;;4949369;28;20625;-79
2021/09/17 09:33:26;;;;;;;9.43;1.50;;;;;;;;;;4978865;28;20058;-78
2021/09/17 09:36:03;;;;;;;11.13;1.80;;;;;;;;;;4950186;28;20042;-78
2021/09/17 09:38:31;;;;;;;7.80;1.20;;;;;;;;;;4956731;28;20119;-79
2021/09/17 09:40:59;;;;;;;20.38;2.38;;;;;;;;;;4971931;28;20057;-80
2021/09/17 09:43:35;;;;;;;8.23;1.50;;;;;;;;;;4953381;28;20039;-78
2021/09/17 09:46:21;;;;;;;8.77;1.23;;;;;;;;;;4955489;28;20035;-79
2021/09/17 09:48:59;;;;;;;10.82;1.70;;;;;;;;;;4957303;28;20038;-80
2021/09/17 09:51:34;;;;;;;9.90;1.58;;;;;;;;;;4951135;28;20468;-80
2021/09/17 09:54:03;;;;;;;9.52;1.98;;;;;;;;;;4965015;28;20046;-80
2021/09/17 09:56:29;;;;;;;12.43;1.70;;;;;;;;;;4954134;28;20146;-79
2021/09/17 09:58:56;;;;;;;8.45;1.40;;;;;;;;;;4960803;28;20787;-80
2021/09/17 10:01:23;;;;;;;10.77;1.60;;;;;;;;;;4958702;28;20582;-79
2021/09/17 10:03:54;;;;;;;12.38;1.80;;;;;;;;;;4959744;28;21409;-79
2021/09/17 10:06:24;;;;;;;14.07;2.00;;;;;;;;;;4961348;28;20030;-79
2021/09/17 10:08:54;;;;;;;8.32;1.80;;;;;;;;;;4971755;28;20795;-79
2021/09/17 10:11:25;;;;;;;7.80;1.55;;;;;;;;;;4980000;28;20401;-79
2021/09/17 10:13:54;;;;;;;12.27;2.10;;;;;;;;;;4960006;28;20030;-79
2021/09/17 10:16:25;;;;;;;10.80;1.65;;;;;;;;;;4969815;28;20633;-79
2021/09/17 10:18:52;;;;;;;11.57;1.73;;;;;;;;;;4961720;28;20065;-80
2021/09/17 10:21:37;;;;;;;13.10;1.75;;;;;;;;;;4961978;28;20030;-78
2021/09/17 10:24:22;;;;;;;14.27;1.90;;;;;;;;;;4973532;28;20054;-77
2021/09/17 10:26:55;;;;;;;15.52;2.15;;;;;;;;;;4962524;28;20038;-80
2021/09/17 10:29:30;;;;;;;12.68;2.22;;;;;;;;;;4953762;28;20051;-77
2021/09/17 10:31:59;;;;;;;10.70;1.65;;;;;;;;;;4954648;28;20038;-78
2021/09/17 10:34:34;;;;;;;13.57;2.00;;;;;;;;;;4950182;28;20077;-78
2021/09/17 10:37:01;;;;;;;13.20;2.05;;;;;;;;;;4971238;28;20132;-77
2021/09/17 10:39:27;;;;;;;11.32;1.75;;;;;;;;;;4967365;28;20303;-79
2021/09/17 10:42:12;;;;;;;13.15;2.22;;;;;;;;;;4961299;28;20024;-78
2021/09/17 10:44:57;;;;;;;12.82;2.20;;;;;;;;;;4938185;28;20121;-78
2021/09/17 10:47:42;;;;;;;10.38;1.88;;;;;;;;;;4963157;28;20058;-78
2021/09/17 10:50:09;;;;;;;12.00;1.98;;;;;;;;;;4955715;28;20037;-78
2021/09/17 10:52:39;;;;;;;12.07;2.13;;;;;;;;;;4950288;28;20042;-79
2021/09/17 10:55:06;;;;;;;16.23;2.28;;;;;;;;;;4970557;28;20036;-79
2021/09/17 10:57:33;;;;;;;14.18;2.45;;;;;;;;;;4958908;28;20050;-78
2021/09/17 10:59:59;;;;;;;16.63;2.83;;;;;;;;;;4956626;28;20022;-78
2021/09/17 11:02:41;;;;;;;17.27;2.53;;;;;;;;;;4955537;28;20117;-77
2021/09/17 11:05:17;;;;;;;13.27;2.67;;;;;;;;;;4951115;28;20038;-77
2021/09/17 11:07:44;;;;;;;15.90;2.35;;;;;;;;;;4951840;28;20640;-78
2021/09/17 11:10:29;;;;;;;12.65;2.45;;;;;;;;;;4972525;28;20042;-78
2021/09/17 11:13:06;;;;;;;13.07;2.53;;;;;;;;;;4960418;28;20030;-78
2021/09/17 11:15:32;;;;;;;19.05;2.40;;;;;;;;;;4965323;28;20562;-78
2021/09/17 11:18:02;;;;;;;14.43;2.22;;;;;;;;;;4973778;28;20120;-78
2021/09/17 11:20:30;;;;;;;17.90;2.72;;;;;;;;;;4968721;28;20054;-78
2021/09/17 11:23:05;;;;;;;18.42;2.88;;;;;;;;;;4958211;28;20038;-78
2021/09/17 11:25:44;;;;;;;15.35;2.60;;;;;;;;;;4972754;28;20035;-78
2021/09/17 11:28:29;;;;;;;13.90;2.30;;;;;;;;;;4972994;28;20038;-78
2021/09/17 11:31:15;;;;;;;17.13;2.90;;;;;;;;;;4956130;28;20116;-79
2021/09/17 11:33:41;;;;;;;17.90;3.13;;;;;;;;;;4954087;28;20177;-79
2021/09/17 11:36:08;;;;;;;14.23;2.63;;;;;;;;;;4975036;28;20038;-79
2021/09/17 11:38:35;;;;;;;14.98;2.75;;;;;;;;;;4947915;28;20449;-78
2021/09/17 11:41:02;;;;;;;13.90;2.47;;;;;;;;;;4974508;28;20038;-81
2021/09/17 11:43:29;;;;;;;14.70;2.20;;;;;;;;;;4957789;28;20087;-80
2021/09/17 11:45:55;;;;;;;15.20;2.35;;;;;;;;;;4964403;28;20042;-79
2021/09/17 11:48:23;;;;;;;12.82;2.10;;;;;;;;;;4960913;28;20026;-78
2021/09/17 11:50:50;;;;;;;13.48;2.38;;;;;;;;;;4980825;28;20104;-78
2021/09/17 11:53:16;;;;;;;17.95;2.40;;;;;;;;;;4965388;28;20047;-78
2021/09/17 11:55:42;;;;;;;17.23;2.83;;;;;;;;;;4961440;28;20157;-79
2021/09/17 11:58:09;;;;;;;12.35;2.63;;;;;;;;;;4963718;28;20046;-78
2021/09/17 12:00:35;;;;;;;14.98;2.60;;;;;;;;;;4953754;28;20200;-79
2021/09/17 12:03:03;;;;;;;16.02;2.63;;;;;;;;;;4963733;28;20018;-79
2021/09/17 12:05:30;;;;;;;14.98;2.60;;;;;;;;;;4956431;28;20038;-79
2021/09/17 12:07:57;;;;;;;15.05;3.05;;;;;;;;;;4984385;28;20042;-79
2021/09/17 12:10:26;;;;;;;16.50;2.70;;;;;;;;;;4960335;28;20045;-77
2021/09/17 12:13:04;;;;;;;17.48;2.40;;;;;;;;;;4963840;28;20039;-78
2021/09/17 12:15:35;;;;;;;14.60;3.20;;;;;;;;;;4945020;28;20030;-79
2021/09/17 12:18:03;;;;;;;13.27;1.98;;;;;;;;;;4964982;28;20049;-79
2021/09/17 12:20:39;;;;;;;13.95;2.78;;;;;;;;;;4961444;28;20066;-80
2021/09/17 12:23:05;;;;;;;14.63;2.13;;;;;;;;;;4976109;28;20044;-80
2021/09/17 12:25:31;;;;;;;13.38;2.55;;;;;;;;;;4962380;28;20038;-78
2021/09/17 12:27:59;;;;;;;12.90;2.20;;;;;;;;;;4964272;28;20064;-79
2021/09/17 12:30:30;;;;;;;13.27;2.03;;;;;;;;;;4970770;28;20962;-80
2021/09/17 12:33:22;;;;;;;11.75;2.22;;;;;;;;;;4945292;28;20041;-79
2021/09/17 12:35:50;;;;;;;11.20;2.42;;;;;;;;;;4938507;28;20093;-78
2021/09/17 12:38:18;;;;;;;12.15;2.38;;;;;;;;;;4963527;28;20104;-79
2021/09/17 12:40:46;;;;;;;13.15;2.17;;;;;;;;;;4955816;28;20039;-81
2021/09/17 12:43:17;;;;;;;11.73;2.17;;;;;;;;;;4974516;28;20038;-78
2021/09/17 12:45:56;;;;;;;12.80;2.63;;;;;;;;;;4977476;28;20743;-79
2021/09/17 12:48:24;;;;;;;14.80;2.67;;;;;;;;;;4962280;28;20022;-79
2021/09/17 12:50:50;;;;;;;15.88;2.17;;;;;;;;;;4977212;28;20038;-80
2021/09/17 12:53:22;;;;;;;13.20;2.58;;;;;;;;;;4962042;28;20026;-79
2021/09/17 12:56:00;;;;;;;13.63;2.33;;;;;;;;;;4963446;28;20698;-78
2021/09/17 12:58:36;;;;;;;13.93;2.42;;;;;;;;;;4954743;28;20026;-80
2021/09/17 13:01:03;;;;;;;13.43;2.55;;;;;;;;;;4961565;28;20045;-79
2021/09/17 13:03:30;;;;;;;14.98;2.60;;;;;;;;;;4958882;28;20054;-80
2021/09/17 13:05:58;;;;;;;13.00;2.40;;;;;;;;;;4961381;28;20026;-80
2021/09/17 13:08:26;;;;;;;12.75;2.40;;;;;;;;;;4973751;28;20038;-80
2021/09/17 13:10:53;;;;;;;14.98;2.40;;;;;;;;;;4961157;28;20085;-78
2021/09/17 13:13:20;;;;;;;14.30;2.20;;;;;;;;;;4960404;28;20043;-79
2021/09/17 13:15:48;;;;;;;11.43;2.10;;;;;;;;;;4960666;28;23151;-77
2021/09/17 13:18:15;;;;;;;11.02;1.90;;;;;;;;;;4962071;28;21057;-79
2021/09/17 13:20:42;;;;;;;12.27;2.58;;;;;;;;;;4954655;28;20049;-79
2021/09/17 13:23:09;;;;;;;11.80;2.25;;;;;;;;;;4956129;28;20067;-79
2021/09/17 13:25:37;;;;;;;10.95;2.10;;;;;;;;;;4969683;28;20148;-78
2021/09/17 13:28:07;;;;;;;10.05;1.80;;;;;;;;;;4961956;28;20042;-79
2021/09/17 13:30:37;;;;;;;13.80;2.60;;;;;;;;;;4957523;28;20080;-79
2021/09/17 13:33:03;;;;;;;15.45;2.30;;;;;;;;;;4962150;28;20030;-78
2021/09/17 13:35:30;;;;;;;15.40;2.22;;;;;;;;;;4957519;28;20044;-78
2021/09/17 13:37:58;;;;;;;15.63;2.20;;;;;;;;;;4963895;28;20111;-78
2021/09/17 13:40:25;;;;;;;14.80;2.33;;;;;;;;;;4972841;28;20042;-78
2021/09/17 13:42:51;;;;;;;13.90;2.38;;;;;;;;;;4956479;28;20050;-79
2021/09/17 13:45:19;;;;;;;12.85;2.22;;;;;;;;;;4966425;28;20026;-79
2021/09/17 13:47:55;;;;;;;14.68;2.10;;;;;;;;;;4962935;28;20038;-80
2021/09/17 13:50:23;;;;;;;12.20;2.10;;;;;;;;;;4959046;28;20066;-78
2021/09/17 13:52:50;;;;;;;9.43;1.95;;;;;;;;;;4974408;28;20145;-80
2021/09/17 13:55:18;;;;;;;13.65;2.47;;;;;;;;;;4958461;28;20150;-80
2021/09/17 13:57:45;;;;;;;11.43;1.85;;;;;;;;;;4956788;28;20057;-80
2021/09/17 14:00:11;;;;;;;8.80;1.50;;;;;;;;;;4965808;28;20340;-78
2021/09/17 14:02:39;;;;;;;10.55;1.60;;;;;;;;;;4958486;28;20030;-78
2021/09/17 14:05:06;;;;;;;8.23;1.63;;;;;;;;;;4961440;28;20057;-78
2021/09/17 14:07:32;;;;;;;7.30;1.50;;;;;;;;;;4954141;28;20034;-78
2021/09/17 14:09:59;;;;;;;11.80;2.05;;;;;;;;;;4974589;28;20034;-77
2021/09/17 14:12:25;;;;;;;10.02;1.60;;;;;;;;;;4955197;28;20039;-78
2021/09/17 14:14:53;;;;;;;8.48;1.90;;;;;;;;;;4960596;28;20662;-79
2021/09/17 14:17:19;;;;;;;9.23;1.50;;;;;;;;;;4964538;28;20065;-78
2021/09/17 14:19:51;;;;;;;9.13;1.73;;;;;;;;;;4961060;28;20393;-79
2021/09/17 14:22:17;;;;;;;11.13;1.80;;;;;;;;;;4973552;28;20205;-80
2021/09/17 14:24:43;;;;;;;7.43;1.73;;;;;;;;;;4971754;28;20066;-81
2021/09/17 14:27:10;;;;;;;7.47;1.65;;;;;;;;;;4963124;28;20038;-79
2021/09/17 14:29:36;;;;;;;10.05;1.88;;;;;;;;;;4956885;28;20041;-79
2021/09/17 14:32:03;;;;;;;8.70;1.65;;;;;;;;;;4958896;28;20117;-78
2021/09/17 14:34:30;;;;;;;9.32;1.80;;;;;;;;;;4958233;28;20428;-78
2021/09/17 14:36:57;;;;;;;7.80;1.70;;;;;;;;;;4961579;28;20117;-78